Time;durP1;ratioP1;P1;durP2;ratioP2;P2;SDS_P1;SDS_P2;PMS_P1;PMS_P2;Temp;Humidity;BMP_temperature;BMP_pressure;BME280_temperature;BME280_humidity;BME280_pressure;Samples;Min_cycle;Max_cycle;Signal;HPM_P1;HPM_P2
2022/11/19 00:02:28;;;;;;;1.20;0.93;;;11.90;88.10;;;;;;5045694;28;20517;-51
2022/11/19 00:04:57;;;;;;;1.10;1.00;;;11.90;88.20;;;;;;5030022;28;20472;-49
2022/11/19 00:07:25;;;;;;;1.20;0.93;;;11.90;88.20;;;;;;5028822;28;20525;-52
2022/11/19 00:09:54;;;;;;;1.30;1.10;;;11.90;88.20;;;;;;5027449;28;20537;-51
2022/11/19 00:15:12;;;;;;;1.90;1.43;;;11.90;88.10;;;;;;5027374;28;20468;-50
2022/11/19 00:17:40;;;;;;;1.37;1.20;;;11.90;88.20;;;;;;5027156;28;20846;-50
2022/11/19 00:20:09;;;;;;;1.30;1.17;;;11.90;88.10;;;;;;5036222;28;20566;-50
2022/11/19 00:22:40;;;;;;;1.03;0.93;;;11.90;88.20;;;;;;5035837;28;20468;-51
2022/11/19 00:25:09;;;;;;;1.57;1.00;;;11.90;88.10;;;;;;5038683;28;20578;-50
2022/11/19 00:27:37;;;;;;;1.27;1.00;;;11.90;88.20;;;;;;5027963;28;20895;-49
2022/11/19 00:30:07;;;;;;;0.90;0.90;;;11.90;88.10;;;;;;5022878;28;20472;-50
2022/11/19 00:32:58;;;;;;;1.40;1.23;;;11.90;88.10;;;;;;5045309;28;20483;-50
2022/11/19 00:35:26;;;;;;;1.60;1.00;;;11.90;88.00;;;;;;5027428;28;20460;-50
2022/11/19 00:37:55;;;;;;;1.53;1.40;;;11.90;88.30;;;;;;5028528;28;20428;-51
2022/11/19 00:40:23;;;;;;;0.73;0.73;;;11.90;88.10;;;;;;5032951;28;20470;-50
2022/11/19 00:45:34;;;;;;;1.93;1.10;;;11.90;88.10;;;;;;5024477;28;20558;-50
2022/11/19 00:48:04;;;;;;;1.10;1.00;;;11.90;88.30;;;;;;5033158;28;20487;-49
2022/11/19 00:50:33;;;;;;;1.40;0.90;;;11.90;88.20;;;;;;5058606;28;20444;-51
2022/11/19 00:53:01;;;;;;;1.80;1.00;;;11.90;88.10;;;;;;5031403;28;20463;-51
2022/11/19 00:55:30;;;;;;;1.13;0.97;;;11.90;88.10;;;;;;5045408;28;20432;-51
2022/11/19 00:57:58;;;;;;;1.33;1.07;;;11.90;88.10;;;;;;5027884;28;20431;-50
2022/11/19 01:00:26;;;;;;;1.17;0.80;;;11.90;88.00;;;;;;5044977;28;20455;-50
2022/11/19 01:02:55;;;;;;;0.80;0.80;;;11.90;88.00;;;;;;5061531;28;20459;-49
2022/11/19 01:05:25;;;;;;;1.50;0.80;;;11.80;87.90;;;;;;5065864;28;20588;-51
2022/11/19 01:07:53;;;;;;;1.10;1.00;;;11.90;88.10;;;;;;5047715;28;20451;-51
2022/11/19 01:10:22;;;;;;;1.27;1.07;;;11.90;88.10;;;;;;5043612;28;20479;-52
2022/11/19 01:15:37;;;;;;;1.00;0.90;;;11.90;88.10;;;;;;5048921;28;20571;-51
2022/11/19 01:18:05;;;;;;;1.10;1.00;;;11.90;88.10;;;;;;5048323;28;20440;-49
2022/11/19 01:20:35;;;;;;;1.73;0.77;;;11.80;87.90;;;;;;5045618;28;20955;-48
2022/11/19 01:23:04;;;;;;;1.60;0.80;;;11.90;88.00;;;;;;5045889;28;20523;-49
2022/11/19 01:25:32;;;;;;;0.87;0.70;;;11.90;88.00;;;;;;5052355;28;20458;-50
2022/11/19 01:28:01;;;;;;;0.80;0.80;;;11.90;87.90;;;;;;5046592;28;20503;-51
2022/11/19 01:30:30;;;;;;;1.10;0.83;;;11.90;88.00;;;;;;5041462;28;20846;-50
2022/11/19 01:32:58;;;;;;;1.17;1.07;;;11.90;87.90;;;;;;5040300;28;20580;-51
2022/11/19 01:35:27;;;;;;;1.53;1.10;;;11.90;88.00;;;;;;5063222;28;20560;-50
2022/11/19 01:37:59;;;;;;;1.10;0.83;;;11.90;88.00;;;;;;5047454;28;20439;-52
2022/11/19 01:40:28;;;;;;;1.07;0.87;;;11.90;87.90;;;;;;5023838;28;20477;-51
2022/11/19 01:42:57;;;;;;;1.20;1.10;;;11.90;87.90;;;;;;5026016;28;20459;-51
2022/11/19 01:45:33;;;;;;;1.00;1.00;;;11.80;87.80;;;;;;5042051;28;20483;-51
2022/11/19 01:48:06;;;;;;;1.23;0.90;;;11.90;87.90;;;;;;5036823;28;21044;-51
2022/11/19 01:50:41;;;;;;;1.20;1.10;;;11.90;87.90;;;;;;5027452;28;20834;-50
2022/11/19 01:53:11;;;;;;;1.10;0.80;;;11.90;88.00;;;;;;5030928;28;20463;-50
2022/11/19 01:55:42;;;;;;;0.80;0.80;;;11.80;87.70;;;;;;5025891;28;20843;-49
2022/11/19 01:58:14;;;;;;;1.90;1.10;;;11.80;87.80;;;;;;5028093;28;20424;-51
2022/11/19 02:00:43;;;;;;;1.37;1.10;;;11.80;87.80;;;;;;5046091;28;20447;-51
2022/11/19 02:03:12;;;;;;;1.23;1.00;;;11.80;87.90;;;;;;5063450;28;20962;-48
2022/11/19 02:05:42;;;;;;;1.47;1.10;;;11.80;87.90;;;;;;5063803;28;20962;-50
2022/11/19 02:08:37;;;;;;;1.20;1.10;;;11.80;88.00;;;;;;5048849;28;20451;-50
2022/11/19 02:11:35;;;;;;;1.47;0.80;;;11.80;88.00;;;;;;5057818;28;20448;-50
2022/11/19 02:14:16;;;;;;;1.50;1.23;;;11.80;87.90;;;;;;5034199;28;20530;-51
2022/11/19 02:16:56;;;;;;;1.37;1.20;;;11.80;88.00;;;;;;5021377;28;20443;-50
2022/11/19 02:19:58;;;;;;;2.30;1.63;;;11.80;88.00;;;;;;5038626;28;20470;-51
2022/11/19 02:22:46;;;;;;;1.30;1.20;;;11.80;88.00;;;;;;5022806;28;20880;-51
2022/11/19 02:25:24;;;;;;;1.10;1.00;;;11.80;88.00;;;;;;5040567;28;20537;-52
2022/11/19 02:28:20;;;;;;;1.90;0.87;;;11.80;87.90;;;;;;5031426;28;20478;-49
2022/11/19 02:30:52;;;;;;;1.93;1.23;;;11.80;88.00;;;;;;5036612;28;20468;-49
2022/11/19 02:33:27;;;;;;;1.43;1.07;;;11.80;88.10;;;;;;5030425;28;20464;-50
2022/11/19 02:36:01;;;;;;;1.67;1.57;;;11.80;88.00;;;;;;5023101;28;20447;-51
2022/11/19 02:38:37;;;;;;;1.17;1.07;;;11.80;88.10;;;;;;5030016;28;20461;-51
2022/11/19 02:44:57;;;;;;;1.40;1.30;;;11.80;88.00;;;;;;5057390;28;21002;-51
2022/11/19 02:46:53;;;;;;;1.57;1.10;;;11.80;88.00;;;;;;5036675;28;20534;-50
2022/11/19 02:49:25;;;;;;;1.07;0.90;;;11.80;87.90;;;;;;5045498;28;20528;-50
2022/11/19 02:51:54;;;;;;;2.03;1.67;;;11.80;88.00;;;;;;5051012;28;20475;-51
2022/11/19 02:54:23;;;;;;;0.87;0.80;;;11.80;88.00;;;;;;5049336;28;20494;-53
2022/11/19 02:56:54;;;;;;;1.30;1.20;;;11.80;87.80;;;;;;5053371;28;21148;-50
2022/11/19 03:05:07;;;;;;;2.47;1.40;;;11.80;87.90;;;;;;5049798;28;20471;-50
2022/11/19 03:07:36;;;;;;;1.73;1.30;;;11.80;87.90;;;;;;5056753;28;20415;-51
2022/11/19 03:10:08;;;;;;;1.13;0.90;;;11.80;87.90;;;;;;5064320;28;20486;-51
2022/11/19 03:12:45;;;;;;;1.77;1.30;;;11.80;87.80;;;;;;5050152;28;20474;-51
2022/11/19 03:18:17;;;;;;;3.10;2.77;;;11.80;87.80;;;;;;5050003;28;20958;-51
2022/11/19 03:20:49;;;;;;;1.60;1.50;;;11.80;87.90;;;;;;5049333;28;20956;-52
2022/11/19 03:23:23;;;;;;;3.27;2.73;;;11.80;87.80;;;;;;5049030;28;20451;-51
2022/11/19 03:25:55;;;;;;;2.70;1.43;;;11.80;87.80;;;;;;5059788;28;20934;-51
2022/11/19 03:28:29;;;;;;;3.13;2.00;;;11.80;87.90;;;;;;5051614;28;20493;-50
2022/11/19 03:31:00;;;;;;;1.70;1.33;;;11.80;88.30;;;;;;5063470;28;20926;-50
2022/11/19 03:33:33;;;;;;;2.03;1.93;;;11.80;87.90;;;;;;5056743;28;20964;-50
2022/11/19 03:36:07;;;;;;;1.40;1.27;;;11.80;88.40;;;;;;5064482;28;20615;-49
2022/11/19 03:38:41;;;;;;;1.77;1.30;;;11.80;88.10;;;;;;5056807;28;20435;-50
2022/11/19 03:41:13;;;;;;;1.40;1.30;;;11.80;88.10;;;;;;5052164;28;20802;-51
2022/11/19 03:43:46;;;;;;;1.80;1.43;;;11.80;88.00;;;;;;5052334;28;20501;-49
2022/11/19 03:46:17;;;;;;;1.27;1.17;;;11.80;88.10;;;;;;5070441;28;20456;-51
2022/11/19 03:48:51;;;;;;;1.33;1.13;;;11.80;88.00;;;;;;5048308;28;20435;-51
2022/11/19 03:51:40;;;;;;;1.47;1.17;;;11.70;88.10;;;;;;5051380;28;20526;-52
2022/11/19 03:54:09;;;;;;;1.20;1.10;;;11.70;88.00;;;;;;5057722;28;20514;-50
2022/11/19 03:56:40;;;;;;;1.80;1.60;;;11.70;87.90;;;;;;5052888;28;20533;-52
2022/11/19 03:59:10;;;;;;;2.03;1.20;;;11.70;87.80;;;;;;5049076;28;20430;-52
2022/11/19 04:01:39;;;;;;;1.40;1.23;;;11.70;87.90;;;;;;5050218;28;20446;-52
2022/11/19 04:06:55;;;;;;;1.30;1.03;;;11.70;87.90;;;;;;5064757;28;20473;-50
2022/11/19 04:09:24;;;;;;;1.57;1.10;;;11.70;87.80;;;;;;5051139;28;20474;-50
2022/11/19 04:11:52;;;;;;;1.10;0.93;;;11.70;87.80;;;;;;5047867;28;20891;-50
2022/11/19 04:14:20;;;;;;;1.03;0.93;;;11.70;87.80;;;;;;5047608;28;20851;-51
2022/11/19 04:16:48;;;;;;;1.03;0.90;;;11.70;87.80;;;;;;5062462;28;20451;-51
2022/11/19 04:19:18;;;;;;;1.20;1.00;;;11.70;87.80;;;;;;5049983;28;20773;-52
2022/11/19 04:21:47;;;;;;;1.00;0.83;;;11.70;87.70;;;;;;5050566;28;20452;-50
2022/11/19 04:24:16;;;;;;;1.17;1.07;;;11.70;87.80;;;;;;5046145;28;20973;-50
2022/11/19 04:26:44;;;;;;;1.17;1.07;;;11.70;87.80;;;;;;5054471;28;20439;-51
2022/11/19 04:29:13;;;;;;;1.00;0.70;;;11.70;87.70;;;;;;5051739;28;21056;-51
2022/11/19 04:31:42;;;;;;;0.90;0.63;;;11.70;87.70;;;;;;5050430;28;21009;-51
2022/11/19 04:34:10;;;;;;;0.97;0.87;;;11.70;87.60;;;;;;5047827;28;20459;-50
2022/11/19 04:36:41;;;;;;;1.47;1.37;;;11.70;87.70;;;;;;5048266;28;20497;-50
2022/11/19 04:39:11;;;;;;;1.13;0.80;;;11.70;88.10;;;;;;5053805;28;20485;-50
2022/11/19 04:41:40;;;;;;;0.90;0.70;;;11.70;87.70;;;;;;5048881;28;20454;-50
2022/11/19 04:44:08;;;;;;;1.00;0.90;;;11.70;87.60;;;;;;5047455;28;20481;-52
2022/11/19 04:46:40;;;;;;;1.40;1.23;;;11.70;87.60;;;;;;5061130;28;20451;-50
2022/11/19 04:49:09;;;;;;;1.10;1.00;;;11.70;87.60;;;;;;5047256;28;20998;-49
2022/11/19 04:51:38;;;;;;;4.43;1.10;;;11.70;87.70;;;;;;5063873;28;20442;-51
2022/11/19 04:54:08;;;;;;;0.87;0.77;;;11.70;87.60;;;;;;5047447;28;21048;-50
2022/11/19 04:56:37;;;;;;;1.23;0.90;;;11.70;87.60;;;;;;5050612;28;20909;-51
2022/11/19 04:59:06;;;;;;;1.77;1.13;;;11.70;87.70;;;;;;5048348;28;20481;-49
2022/11/19 05:01:34;;;;;;;1.63;1.13;;;11.70;87.60;;;;;;5044343;28;20451;-51
2022/11/19 05:04:03;;;;;;;1.57;1.03;;;11.70;87.60;;;;;;5048124;28;20482;-50
2022/11/19 05:06:32;;;;;;;1.30;1.00;;;11.70;87.70;;;;;;5055266;28;20442;-52
2022/11/19 05:09:00;;;;;;;0.70;0.60;;;11.70;87.60;;;;;;5046161;28;21059;-49
2022/11/19 05:11:30;;;;;;;1.23;1.00;;;11.70;87.60;;;;;;5055028;28;20829;-51
2022/11/19 05:13:59;;;;;;;1.37;0.70;;;11.70;87.60;;;;;;5047151;28;20447;-51
2022/11/19 05:16:27;;;;;;;0.83;0.80;;;11.70;87.50;;;;;;5054035;28;20449;-50
2022/11/19 05:18:56;;;;;;;0.90;0.73;;;11.70;87.50;;;;;;5050195;28;21088;-51
2022/11/19 05:21:25;;;;;;;0.80;0.67;;;11.70;87.50;;;;;;5050587;28;20440;-49
2022/11/19 05:23:53;;;;;;;1.00;0.80;;;11.70;87.60;;;;;;5047240;28;20463;-50
2022/11/19 05:26:22;;;;;;;1.40;1.07;;;11.70;87.60;;;;;;5047817;28;20443;-50
2022/11/19 05:28:52;;;;;;;0.80;0.67;;;11.70;87.50;;;;;;5058461;28;20416;-49
2022/11/19 05:31:20;;;;;;;2.00;1.00;;;11.70;87.50;;;;;;5049921;28;20462;-51
2022/11/19 05:33:49;;;;;;;1.17;0.83;;;11.70;87.40;;;;;;5059793;28;20471;-49
2022/11/19 05:36:17;;;;;;;0.70;0.70;;;11.70;87.50;;;;;;5053840;28;20439;-49
2022/11/19 05:38:46;;;;;;;1.10;1.00;;;11.70;87.50;;;;;;5062867;28;20520;-51
2022/11/19 05:41:14;;;;;;;1.10;1.00;;;11.70;87.50;;;;;;5045900;28;20549;-51
2022/11/19 05:43:43;;;;;;;0.93;0.80;;;11.70;87.50;;;;;;5044190;28;20494;-51
2022/11/19 05:46:13;;;;;;;1.20;0.83;;;11.70;87.50;;;;;;5042268;28;20792;-49
2022/11/19 05:48:41;;;;;;;0.80;0.80;;;11.70;87.50;;;;;;5064290;28;20538;-51
2022/11/19 05:51:13;;;;;;;1.00;0.80;;;11.60;87.40;;;;;;5049528;28;20458;-49
2022/11/19 05:53:42;;;;;;;1.00;0.90;;;11.60;87.40;;;;;;5056586;28;20507;-51
2022/11/19 05:56:11;;;;;;;1.10;0.73;;;11.60;87.30;;;;;;5044103;28;20733;-50
2022/11/19 05:58:39;;;;;;;1.07;0.90;;;11.60;87.40;;;;;;5046391;28;20941;-51
2022/11/19 06:01:08;;;;;;;1.03;0.90;;;11.60;87.30;;;;;;5063890;28;20434;-48
2022/11/19 06:03:39;;;;;;;1.13;1.00;;;11.60;87.40;;;;;;5050743;28;20463;-51
2022/11/19 06:06:08;;;;;;;1.07;0.90;;;11.60;87.40;;;;;;5059654;28;20500;-51
2022/11/19 06:08:36;;;;;;;0.70;0.60;;;11.60;87.50;;;;;;5043942;28;20464;-51
2022/11/19 06:11:05;;;;;;;1.13;1.03;;;11.60;87.40;;;;;;5051683;28;20450;-50
2022/11/19 06:13:33;;;;;;;1.60;0.90;;;11.60;87.40;;;;;;5052478;28;20521;-51
2022/11/19 06:16:02;;;;;;;1.20;1.10;;;11.60;87.40;;;;;;5047858;28;20483;-51
2022/11/19 06:18:30;;;;;;;1.83;0.73;;;11.60;87.40;;;;;;5060833;28;20466;-51
2022/11/19 06:21:01;;;;;;;1.17;0.90;;;11.60;87.30;;;;;;5049622;28;20958;-50
2022/11/19 06:23:29;;;;;;;1.30;1.00;;;11.60;87.20;;;;;;5046957;28;20466;-50
2022/11/19 06:25:58;;;;;;;1.60;1.50;;;11.60;87.30;;;;;;5050492;28;20446;-51
2022/11/19 06:28:26;;;;;;;2.00;1.17;;;11.60;87.30;;;;;;5048164;28;20429;-50
2022/11/19 06:30:55;;;;;;;1.17;0.90;;;11.60;87.30;;;;;;5027652;28;20461;-49
2022/11/19 06:33:23;;;;;;;1.13;1.03;;;11.60;87.30;;;;;;5056860;28;20463;-49
2022/11/19 06:35:52;;;;;;;1.13;0.97;;;11.60;87.30;;;;;;5047974;28;20447;-50
2022/11/19 06:38:22;;;;;;;1.07;0.97;;;11.60;87.30;;;;;;5049131;28;20500;-51
2022/11/19 06:40:50;;;;;;;1.30;1.13;;;11.60;87.30;;;;;;5060096;28;20432;-50
2022/11/19 06:43:19;;;;;;;1.43;1.10;;;11.60;87.30;;;;;;5046924;28;20451;-50
2022/11/19 06:45:47;;;;;;;1.23;0.83;;;11.60;87.20;;;;;;5045215;28;21036;-50
2022/11/19 06:48:16;;;;;;;1.30;1.20;;;11.60;87.20;;;;;;5063373;28;20447;-51
2022/11/19 06:50:45;;;;;;;1.73;1.57;;;11.60;87.20;;;;;;5046154;28;20455;-50
2022/11/19 06:53:14;;;;;;;3.70;1.87;;;11.60;87.00;;;;;;5049239;28;20446;-50
2022/11/19 06:55:44;;;;;;;2.10;1.53;;;11.60;86.80;;;;;;5049176;28;20954;-48
2022/11/19 06:58:13;;;;;;;1.57;1.00;;;11.60;86.90;;;;;;5050539;28;20845;-49
2022/11/19 07:00:42;;;;;;;1.57;1.40;;;11.60;87.00;;;;;;5048740;28;20477;-51
2022/11/19 07:03:10;;;;;;;1.20;1.10;;;11.60;86.90;;;;;;5066827;28;20941;-49
2022/11/19 07:05:39;;;;;;;2.43;2.23;;;11.60;87.10;;;;;;5050229;28;20453;-49
2022/11/19 07:08:08;;;;;;;1.40;1.10;;;11.60;88.10;;;;;;5049935;28;20458;-49
2022/11/19 07:10:36;;;;;;;1.70;1.10;;;11.60;86.90;;;;;;5048169;28;20470;-50
2022/11/19 07:13:06;;;;;;;2.00;1.80;;;11.60;87.00;;;;;;5055731;28;20521;-50
2022/11/19 07:15:35;;;;;;;1.13;1.03;;;11.50;86.70;;;;;;5048712;28;20961;-51
2022/11/19 07:18:03;;;;;;;1.20;1.10;;;11.60;86.60;;;;;;5066691;28;20435;-49
2022/11/19 07:20:32;;;;;;;1.27;1.17;;;11.50;86.50;;;;;;5058590;28;21382;-50
2022/11/19 07:23:02;;;;;;;1.33;1.23;;;11.50;86.60;;;;;;5048541;28;20460;-49
2022/11/19 07:25:31;;;;;;;1.67;1.23;;;11.50;86.30;;;;;;5048230;28;20510;-51
2022/11/19 07:27:59;;;;;;;1.60;1.50;;;11.50;86.70;;;;;;5044071;28;20435;-51
2022/11/19 07:30:30;;;;;;;2.40;1.73;;;11.50;86.70;;;;;;5064019;28;20820;-50
2022/11/19 07:32:59;;;;;;;1.97;1.17;;;11.50;87.80;;;;;;5065648;28;20614;-49
2022/11/19 07:35:27;;;;;;;1.40;1.30;;;11.50;86.60;;;;;;5049016;28;20525;-51
2022/11/19 07:37:56;;;;;;;1.40;1.30;;;11.50;86.60;;;;;;5049681;28;20437;-49
2022/11/19 07:40:25;;;;;;;1.47;1.37;;;11.50;86.70;;;;;;5068258;28;20482;-49
2022/11/19 07:42:52;;;;;;;2.00;1.53;;;11.50;86.40;;;;;;5050338;28;20447;-50
2022/11/19 07:45:22;;;;;;;1.53;1.43;;;11.50;86.10;;;;;;5052274;28;20511;-51
2022/11/19 07:47:52;;;;;;;1.27;1.03;;;11.50;85.80;;;;;;5047714;28;20458;-49
2022/11/19 07:50:21;;;;;;;1.47;1.37;;;11.50;85.70;;;;;;5066620;28;20475;-49
2022/11/19 07:52:50;;;;;;;5.33;3.13;;;11.50;86.30;;;;;;5049298;28;20471;-50
2022/11/19 07:55:19;;;;;;;2.37;1.60;;;11.40;84.80;;;;;;5046814;28;21002;-49
2022/11/19 07:57:47;;;;;;;1.57;1.47;;;11.40;84.70;;;;;;5042181;28;20946;-49
2022/11/19 08:00:16;;;;;;;2.27;1.90;;;11.40;85.40;;;;;;5047842;28;20896;-51
2022/11/19 08:02:45;;;;;;;2.10;1.90;;;11.40;85.60;;;;;;5046770;28;20817;-49
2022/11/19 08:05:15;;;;;;;2.07;1.50;;;11.40;84.70;;;;;;5049102;28;20470;-51
2022/11/19 08:07:44;;;;;;;1.30;1.20;;;11.40;85.80;;;;;;5048993;28;20807;-49
2022/11/19 08:10:15;;;;;;;1.60;1.50;;;11.40;86.10;;;;;;5055688;28;20479;-50
2022/11/19 08:13:01;;;;;;;1.90;1.80;;;11.40;86.10;;;;;;5070807;28;20486;-50
2022/11/19 08:15:30;;;;;;;1.57;1.43;;;11.40;85.80;;;;;;5026386;28;20464;-50
2022/11/19 08:18:11;;;;;;;2.10;1.47;;;11.40;86.60;;;;;;5021890;28;20498;-50
2022/11/19 08:20:43;;;;;;;3.83;1.60;;;11.40;85.70;;;;;;5040017;28;20882;-50
2022/11/19 08:23:12;;;;;;;2.27;2.03;;;11.40;85.80;;;;;;5040643;28;20474;-51
2022/11/19 08:25:42;;;;;;;1.60;1.50;;;11.40;85.70;;;;;;5027838;28;20453;-50
2022/11/19 08:28:12;;;;;;;1.57;1.30;;;11.40;85.70;;;;;;5028929;28;20969;-52
2022/11/19 08:30:40;;;;;;;2.37;1.80;;;11.40;85.90;;;;;;5037123;28;20435;-49
2022/11/19 08:33:09;;;;;;;1.63;1.47;;;11.40;84.70;;;;;;5050776;28;20484;-51
2022/11/19 08:35:37;;;;;;;1.37;1.10;;;11.40;85.20;;;;;;5037380;28;20531;-51
2022/11/19 08:38:08;;;;;;;2.30;1.43;;;11.40;85.80;;;;;;5053342;28;20466;-49
2022/11/19 08:40:36;;;;;;;1.77;1.63;;;11.40;85.50;;;;;;5038797;28;20463;-50
2022/11/19 08:43:04;;;;;;;2.20;2.00;;;11.40;85.80;;;;;;5054325;28;20972;-51
2022/11/19 08:45:34;;;;;;;1.60;1.50;;;11.40;85.60;;;;;;5033874;28;20476;-51
2022/11/19 08:48:05;;;;;;;2.90;1.63;;;11.40;85.70;;;;;;5026100;28;20870;-50
2022/11/19 08:50:34;;;;;;;1.40;1.30;;;11.40;85.70;;;;;;5048588;28;20992;-51
2022/11/19 08:53:05;;;;;;;1.87;1.63;;;11.40;85.70;;;;;;5071839;28;20524;-48
2022/11/19 08:55:35;;;;;;;1.47;1.27;;;11.40;85.50;;;;;;5046084;28;20525;-49
2022/11/19 08:58:06;;;;;;;2.07;1.87;;;11.40;85.70;;;;;;5053833;28;20981;-51
2022/11/19 09:00:36;;;;;;;1.60;1.50;;;11.40;85.60;;;;;;5046634;28;20505;-51
2022/11/19 09:03:05;;;;;;;1.53;1.43;;;11.40;85.60;;;;;;5067444;28;20447;-51
2022/11/19 09:05:35;;;;;;;1.20;1.10;;;11.40;85.80;;;;;;5050519;28;20479;-50
2022/11/19 09:08:03;;;;;;;1.20;1.10;;;11.40;85.90;;;;;;5047881;28;20423;-51
2022/11/19 09:10:32;;;;;;;1.53;1.40;;;11.40;85.40;;;;;;5027257;28;20466;-51
2022/11/19 09:13:03;;;;;;;1.77;1.67;;;11.40;85.70;;;;;;5048265;28;20473;-49
2022/11/19 09:15:32;;;;;;;2.90;1.97;;;11.40;85.50;;;;;;5038694;28;20575;-49
2022/11/19 09:18:00;;;;;;;1.90;1.70;;;11.40;86.80;;;;;;5042358;28;20482;-49
2022/11/19 09:20:29;;;;;;;3.10;2.10;;;11.40;85.70;;;;;;5025522;28;20232;-50
2022/11/19 09:22:58;;;;;;;1.93;1.77;;;11.40;85.60;;;;;;5027570;28;20472;-51
2022/11/19 09:25:28;;;;;;;1.77;1.67;;;11.40;84.70;;;;;;5043470;28;20532;-51
2022/11/19 09:27:56;;;;;;;2.23;2.03;;;11.40;85.50;;;;;;5027156;28;20854;-51
2022/11/19 09:30:27;;;;;;;2.03;1.57;;;11.40;85.50;;;;;;5052355;28;20843;-51
2022/11/19 09:32:58;;;;;;;1.60;1.50;;;11.40;85.70;;;;;;5027425;28;20471;-49
2022/11/19 09:35:27;;;;;;;2.23;1.83;;;11.40;85.50;;;;;;5053406;28;20549;-49
2022/11/19 09:37:55;;;;;;;2.43;2.23;;;11.40;85.50;;;;;;5028130;28;20450;-49
2022/11/19 09:40:24;;;;;;;1.60;1.50;;;11.40;85.60;;;;;;5026727;28;20915;-49
2022/11/19 09:43:06;;;;;;;3.00;2.40;;;11.40;85.60;;;;;;5032603;28;20456;-49
2022/11/19 09:45:56;;;;;;;2.23;2.00;;;11.40;85.50;;;;;;5032311;28;20459;-51
2022/11/19 09:48:32;;;;;;;7.43;6.73;;;11.40;85.60;;;;;;5036858;28;20940;-51
2022/11/19 09:51:06;;;;;;;7.53;6.70;;;11.40;83.30;;;;;;5047689;28;20452;-51
2022/11/19 09:53:42;;;;;;;6.90;6.17;;;11.40;78.50;;;;;;5050475;28;20986;-51
2022/11/19 09:56:15;;;;;;;8.03;6.00;;;11.30;80.00;;;;;;5023058;28;20447;-49
2022/11/19 09:58:45;;;;;;;6.43;5.70;;;11.20;80.90;;;;;;5027343;28;20456;-49
2022/11/19 10:01:17;;;;;;;5.87;5.30;;;11.20;81.60;;;;;;5025522;28;20444;-51
2022/11/19 10:03:48;;;;;;;5.00;4.50;;;11.20;82.30;;;;;;5029244;28;20476;-51
2022/11/19 10:06:26;;;;;;;4.47;4.07;;;11.20;83.20;;;;;;5053705;28;20548;-49
2022/11/19 10:09:10;;;;;;;5.70;5.13;;;11.20;82.70;;;;;;5042483;28;20456;-49
2022/11/19 10:11:53;;;;;;;6.30;4.80;;;11.20;82.80;;;;;;5026616;28;20509;-50
2022/11/19 10:14:45;;;;;;;5.40;4.57;;;11.20;82.70;;;;;;5055722;28;20488;-49
2022/11/19 10:17:25;;;;;;;6.53;4.90;;;11.20;83.00;;;;;;5045067;28;20916;-50
2022/11/19 10:20:09;;;;;;;6.00;3.83;;;11.20;82.90;;;;;;5025104;28;20959;-50
2022/11/19 10:22:42;;;;;;;5.93;3.73;;;11.20;83.20;;;;;;5028050;28;20590;-50
2022/11/19 10:25:17;;;;;;;4.60;4.00;;;11.20;83.10;;;;;;5040105;28;20566;-50
2022/11/19 10:27:49;;;;;;;5.97;4.17;;;11.20;83.20;;;;;;5055578;28;20428;-49
2022/11/19 10:30:20;;;;;;;4.80;4.30;;;11.20;83.10;;;;;;5060142;28;20561;-51
2022/11/19 10:32:57;;;;;;;6.17;4.57;;;11.20;83.20;;;;;;5055126;28;20469;-50
2022/11/19 10:35:30;;;;;;;5.07;4.43;;;11.20;83.40;;;;;;5059984;28;20869;-51
2022/11/19 10:38:01;;;;;;;5.13;4.37;;;11.20;83.30;;;;;;5067298;28;20438;-49
2022/11/19 10:40:36;;;;;;;5.37;4.33;;;11.20;83.30;;;;;;5057515;28;20474;-49
2022/11/19 10:43:16;;;;;;;5.07;3.97;;;11.20;83.10;;;;;;5060298;28;20816;-50
2022/11/19 10:45:51;;;;;;;5.43;4.80;;;11.20;83.10;;;;;;5020419;28;20537;-49
2022/11/19 10:48:23;;;;;;;5.47;4.20;;;11.20;82.90;;;;;;5026279;28;21018;-50
2022/11/19 10:50:54;;;;;;;3.77;3.43;;;11.20;82.90;;;;;;5021981;28;20436;-50
2022/11/19 10:53:28;;;;;;;4.13;3.73;;;11.20;83.20;;;;;;5026349;28;20471;-50
2022/11/19 10:56:00;;;;;;;4.23;3.83;;;11.20;83.10;;;;;;5029884;28;20451;-50
2022/11/19 10:58:35;;;;;;;4.70;3.90;;;11.20;83.60;;;;;;5031634;28;20610;-49
2022/11/19 11:01:57;;;;;;;3.70;3.33;;;11.20;83.50;;;;;;5049180;28;20435;-50
2022/11/19 11:04:28;;;;;;;4.60;4.00;;;11.20;83.50;;;;;;5048266;28;20968;-51
2022/11/19 11:06:59;;;;;;;4.70;3.87;;;11.20;83.00;;;;;;5047827;28;20454;-51
2022/11/19 11:09:33;;;;;;;4.23;3.90;;;11.20;83.50;;;;;;5039585;28;20541;-50
2022/11/19 11:15:00;;;;;;;3.73;3.17;;;11.20;83.30;;;;;;5026960;28;20484;-49
2022/11/19 11:17:34;;;;;;;4.17;3.73;;;11.20;83.70;;;;;;5018521;28;20452;-51
2022/11/19 11:20:08;;;;;;;3.70;3.40;;;11.20;83.60;;;;;;5032913;28;20486;-51
2022/11/19 11:22:38;;;;;;;3.67;3.30;;;11.20;83.40;;;;;;5031424;28;20555;-50
2022/11/19 11:25:19;;;;;;;3.20;3.00;;;11.20;83.60;;;;;;5031953;28;20471;-49
2022/11/19 11:28:05;;;;;;;3.40;2.90;;;11.20;83.60;;;;;;5062878;28;20416;-49
2022/11/19 11:30:34;;;;;;;4.30;3.60;;;11.20;83.70;;;;;;5026258;28;20506;-49
2022/11/19 11:33:25;;;;;;;4.70;4.30;;;11.20;83.40;;;;;;5052784;28;20468;-51
2022/11/19 11:35:58;;;;;;;3.50;3.20;;;11.20;83.40;;;;;;5047752;28;20447;-50
2022/11/19 11:38:28;;;;;;;3.87;3.57;;;11.20;83.60;;;;;;5060925;28;20439;-49
2022/11/19 11:41:04;;;;;;;6.53;4.87;;;11.20;83.80;;;;;;5045699;28;20436;-50
2022/11/19 11:44:04;;;;;;;3.90;3.60;;;11.20;83.40;;;;;;5050066;28;20436;-50
2022/11/19 11:46:40;;;;;;;6.60;5.10;;;11.20;83.60;;;;;;5045976;28;20770;-49
2022/11/19 11:49:22;;;;;;;4.07;3.53;;;11.20;83.10;;;;;;5041482;28;20870;-50
2022/11/19 11:52:14;;;;;;;4.37;3.90;;;11.10;83.30;;;;;;5029802;28;20444;-49
2022/11/19 11:54:58;;;;;;;3.80;3.40;;;11.20;83.20;;;;;;5027900;28;20468;-49
2022/11/19 11:57:29;;;;;;;3.70;2.97;;;11.10;83.10;;;;;;5029473;28;20454;-48
2022/11/19 11:59:58;;;;;;;3.87;3.57;;;11.10;83.40;;;;;;5030815;28;20471;-49
2022/11/19 12:02:30;;;;;;;5.27;4.60;;;11.10;83.40;;;;;;5058729;28;20486;-50
2022/11/19 12:05:03;;;;;;;4.83;4.13;;;11.10;83.30;;;;;;5020646;28;20506;-50
2022/11/19 12:07:59;;;;;;;6.30;4.70;;;11.10;83.40;;;;;;5021113;28;20604;-50
2022/11/19 12:10:35;;;;;;;4.40;4.00;;;11.10;82.70;;;;;;5050374;28;20554;-51
2022/11/19 12:13:44;;;;;;;3.93;3.63;;;11.10;83.60;;;;;;5059712;28;22451;-49
2022/11/19 12:16:22;;;;;;;2.70;2.50;;;11.10;83.70;;;;;;5068119;28;20463;-49
2022/11/19 12:19:02;;;;;;;3.20;2.90;;;11.10;83.90;;;;;;5050262;28;20435;-49
2022/11/19 12:22:01;;;;;;;3.77;3.33;;;11.10;84.00;;;;;;5056913;28;20461;-50
2022/11/19 12:24:47;;;;;;;5.75;4.53;;;11.20;84.40;;;;;;5031172;28;20448;-50
2022/11/19 12:27:35;;;;;;;5.77;4.70;;;11.10;83.70;;;;;;5044077;28;20196;-49
2022/11/19 12:30:09;;;;;;;4.20;3.40;;;11.10;83.40;;;;;;5036582;28;21033;-49
2022/11/19 12:33:22;;;;;;;10.30;3.70;;;11.10;83.30;;;;;;5046391;28;20565;-51
2022/11/19 12:36:02;;;;;;;6.20;3.63;;;11.10;83.50;;;;;;5042400;28;20455;-50
2022/11/19 12:38:38;;;;;;;3.40;3.10;;;11.10;83.60;;;;;;5053918;28;20439;-51
2022/11/19 12:41:45;;;;;;;3.97;3.57;;;11.10;83.50;;;;;;5060352;28;20524;-49
2022/11/19 12:44:25;;;;;;;7.13;3.20;;;11.10;83.60;;;;;;5046511;28;20500;-51
2022/11/19 12:47:02;;;;;;;4.13;3.03;;;11.10;83.60;;;;;;5047720;28;20441;-48
2022/11/19 12:49:47;;;;;;;4.20;3.60;;;11.10;83.60;;;;;;5053568;28;20466;-49
2022/11/19 12:52:35;;;;;;;5.57;4.10;;;11.10;83.60;;;;;;5062712;28;20530;-50
2022/11/19 12:55:17;;;;;;;4.67;4.17;;;11.10;83.30;;;;;;5059735;28;21045;-51
2022/11/19 12:57:57;;;;;;;6.13;4.27;;;11.10;83.40;;;;;;5045731;28;20948;-49
2022/11/19 13:00:29;;;;;;;3.60;3.10;;;11.10;83.10;;;;;;5043217;28;20887;-51
2022/11/19 13:03:16;;;;;;;5.67;3.83;;;11.10;83.40;;;;;;5047311;28;21056;-50
2022/11/19 13:05:51;;;;;;;5.30;4.77;;;11.10;83.40;;;;;;5063052;28;20955;-50
2022/11/19 13:08:32;;;;;;;4.00;3.70;;;11.10;83.40;;;;;;5061270;28;20535;-50
2022/11/19 13:11:07;;;;;;;4.13;3.53;;;11.10;83.40;;;;;;5042662;28;20442;-51
2022/11/19 13:13:41;;;;;;;7.60;4.43;;;11.10;83.40;;;;;;5074327;28;20481;-49
2022/11/19 13:16:13;;;;;;;4.93;3.53;;;11.10;83.10;;;;;;5042766;28;20445;-50
2022/11/19 13:19:10;;;;;;;4.50;3.40;;;11.10;83.40;;;;;;5048567;28;20431;-49
2022/11/19 13:21:46;;;;;;;4.43;3.60;;;11.10;83.40;;;;;;5037740;28;20471;-49
2022/11/19 13:24:26;;;;;;;5.63;4.57;;;11.10;83.50;;;;;;5042595;28;20506;-49
2022/11/19 13:27:00;;;;;;;4.37;3.90;;;11.10;83.10;;;;;;5037493;28;20442;-49
2022/11/19 13:29:45;;;;;;;4.17;3.77;;;11.00;82.60;;;;;;5052990;28;20550;-49
2022/11/19 13:32:23;;;;;;;4.20;3.70;;;11.00;83.20;;;;;;5056441;28;20448;-49
2022/11/19 13:35:02;;;;;;;4.33;3.37;;;11.00;83.30;;;;;;5045429;28;20470;-48
2022/11/19 13:37:42;;;;;;;3.90;3.47;;;11.00;83.10;;;;;;5063950;28;20814;-50
2022/11/19 13:40:20;;;;;;;3.80;3.20;;;11.00;83.00;;;;;;5071542;28;20734;-49
2022/11/19 13:46:17;;;;;;;5.50;3.70;;;11.00;83.30;;;;;;5021882;28;20786;-51
2022/11/19 13:48:51;;;;;;;10.33;7.50;;;11.00;83.10;;;;;;5042539;28;20449;-49